createdAt,value
2018-07-30T00:01:15.081Z,78.19
2018-07-30T00:04:19.348Z,78.11
2018-07-30T00:07:23.556Z,77.80
2018-07-30T00:10:27.768Z,79.29
2018-07-30T00:13:32.000Z,79.21
2018-07-30T00:16:36.256Z,80.04
2018-07-30T00:19:40.501Z,79.88
2018-07-30T00:22:44.728Z,78.83
2018-07-30T00:25:49.016Z,79.55
2018-07-30T00:28:53.409Z,79.70
2018-07-30T00:31:57.652Z,79.19
2018-07-30T00:35:01.935Z,79.61
2018-07-30T00:38:06.169Z,79.05
2018-07-30T00:41:10.172Z,78.84
2018-07-30T00:44:14.448Z,79.34
2018-07-30T00:47:18.684Z,79.04
2018-07-30T00:50:22.963Z,79.18
2018-07-30T00:53:27.221Z,79.18
2018-07-30T00:56:31.494Z,79.01
2018-07-30T00:59:35.732Z,79.38
2018-07-30T01:02:39.961Z,79.18
2018-07-30T01:05:44.334Z,79.46
2018-07-30T01:08:48.651Z,79.17
2018-07-30T01:11:52.900Z,78.48
2018-07-30T01:14:57.242Z,79.56
2018-07-30T01:18:01.466Z,79.38
2018-07-30T01:21:05.712Z,79.54
2018-07-30T01:24:09.956Z,80.24
2018-07-30T01:27:14.216Z,79.29
2018-07-30T01:30:18.465Z,79.69
2018-07-30T01:33:22.713Z,78.35
2018-07-30T01:36:26.921Z,79.41
2018-07-30T01:39:31.177Z,79.09
2018-07-30T01:42:35.695Z,78.75
2018-07-30T01:45:39.968Z,79.17
2018-07-30T01:48:44.202Z,79.39
2018-07-30T01:51:48.429Z,80.07
2018-07-30T01:54:53.140Z,79.48
2018-07-30T01:57:57.473Z,78.82
2018-07-30T02:01:01.725Z,78.98
2018-07-30T02:04:05.964Z,79.44
2018-07-30T02:07:10.302Z,78.60
2018-07-30T02:10:14.545Z,79.08
2018-07-30T02:13:18.792Z,78.89
2018-07-30T02:16:23.030Z,79.29
2018-07-30T02:19:27.293Z,78.64
2018-07-30T02:22:31.516Z,79.04
2018-07-30T02:25:35.826Z,79.85
2018-07-30T02:28:40.084Z,78.79
2018-07-30T02:31:44.316Z,79.44
2018-07-30T02:34:48.601Z,79.16
2018-07-30T02:37:52.849Z,80.07
2018-07-30T02:40:57.151Z,80.02
2018-07-30T02:44:01.382Z,80.41
2018-07-30T02:47:05.644Z,81.00
2018-07-30T02:50:09.877Z,81.23
2018-07-30T02:53:14.131Z,80.29
2018-07-30T02:56:18.419Z,80.16
2018-07-30T02:59:22.647Z,81.09
2018-07-30T03:02:26.939Z,81.82
2018-07-30T03:05:31.186Z,81.17
2018-07-30T03:08:35.520Z,82.10
2018-07-30T03:11:40.441Z,81.77
2018-07-30T03:14:44.840Z,81.63
2018-07-30T03:17:49.307Z,82.38
2018-07-30T03:20:53.584Z,82.64
2018-07-30T03:23:57.872Z,82.27
2018-07-30T03:27:02.125Z,83.10
2018-07-30T03:30:08.838Z,83.83
2018-07-30T03:33:13.109Z,83.02
2018-07-30T03:36:17.375Z,82.82
2018-07-30T03:39:21.591Z,82.87
2018-07-30T03:42:25.868Z,82.79
2018-07-30T03:45:30.088Z,83.68
2018-07-30T03:48:34.349Z,83.76
2018-07-30T03:51:38.628Z,84.46
2018-07-30T03:54:42.925Z,84.08
2018-07-30T03:57:47.213Z,83.75
2018-07-30T04:00:51.473Z,84.08
2018-07-30T04:03:55.924Z,83.84
2018-07-30T04:07:00.181Z,83.35
2018-07-30T04:10:04.529Z,83.46
2018-07-30T04:13:08.824Z,83.52
2018-07-30T04:16:13.049Z,83.22
2018-07-30T04:19:17.357Z,83.67
2018-07-30T04:22:21.576Z,84.35
2018-07-30T04:25:25.830Z,84.45
2018-07-30T04:28:30.089Z,83.84
2018-07-30T04:31:34.457Z,83.37
2018-07-30T04:34:38.689Z,83.26
2018-07-30T04:37:42.981Z,82.43
2018-07-30T04:40:47.228Z,82.80
2018-07-30T04:43:51.575Z,82.84
2018-07-30T04:46:55.760Z,82.53
2018-07-30T04:50:00.065Z,82.79
2018-07-30T04:53:04.325Z,82.92
2018-07-30T04:56:08.596Z,82.20
2018-07-30T04:59:12.843Z,82.05
2018-07-30T05:02:17.105Z,82.43
2018-07-30T05:05:21.365Z,81.46
2018-07-30T05:08:25.629Z,82.00
2018-07-30T05:11:29.870Z,81.96
2018-07-30T05:14:34.115Z,80.83
2018-07-30T05:17:38.357Z,80.66
2018-07-30T05:20:42.629Z,80.22
2018-07-30T05:23:46.902Z,79.84
2018-07-30T05:26:51.152Z,80.45
2018-07-30T05:29:55.378Z,79.31
2018-07-30T05:32:59.637Z,80.25
2018-07-30T05:36:03.869Z,81.28
2018-07-30T05:39:10.321Z,81.36
2018-07-30T05:42:14.594Z,81.57
2018-07-30T05:45:18.830Z,81.03
2018-07-30T05:48:23.077Z,79.97
2018-07-30T05:51:27.360Z,78.70
2018-07-30T05:54:31.597Z,78.07
2018-07-30T05:57:35.877Z,76.82
2018-07-30T06:00:40.114Z,74.74
2018-07-30T06:03:44.375Z,75.08
2018-07-30T06:06:48.665Z,74.35
2018-07-30T06:09:52.895Z,73.38
2018-07-30T06:12:57.192Z,73.57
2018-07-30T06:16:01.461Z,72.55
2018-07-30T06:19:05.786Z,70.33
2018-07-30T06:22:10.053Z,70.16
2018-07-30T06:25:14.333Z,71.22
2018-07-30T06:28:18.607Z,70.78
2018-07-30T06:31:22.872Z,69.36
2018-07-30T06:34:27.145Z,69.03
2018-07-30T06:37:31.460Z,68.10
2018-07-30T06:40:35.696Z,68.10
2018-07-30T06:43:39.989Z,68.18
2018-07-30T06:46:44.243Z,68.37
2018-07-30T06:49:48.521Z,68.07
2018-07-30T06:52:52.788Z,68.97
2018-07-30T06:55:57.098Z,67.28
2018-07-30T06:59:01.369Z,65.64
2018-07-30T07:02:05.861Z,64.35
2018-07-30T07:05:11.361Z,63.38
2018-07-30T07:08:15.656Z,64.26
2018-07-30T07:11:19.950Z,64.90
2018-07-30T07:14:24.251Z,64.41
2018-07-30T07:17:28.527Z,63.52
2018-07-30T07:20:32.870Z,63.84
2018-07-30T07:23:37.144Z,64.93
2018-07-30T07:26:41.429Z,64.75
2018-07-30T07:29:45.726Z,65.20
2018-07-30T07:32:49.997Z,62.88
2018-07-30T07:35:54.374Z,63.36
2018-07-30T07:38:58.620Z,61.18
2018-07-30T07:42:02.945Z,61.66
2018-07-30T07:45:07.745Z,62.13
2018-07-30T07:48:12.064Z,61.37
2018-07-30T07:51:16.334Z,61.56
2018-07-30T07:54:20.617Z,61.06
2018-07-30T07:57:25.221Z,61.34
2018-07-30T08:00:29.522Z,59.47
2018-07-30T08:03:33.786Z,59.79
2018-07-30T08:06:38.105Z,59.10
2018-07-30T08:09:42.417Z,60.04
2018-07-30T08:12:46.701Z,59.02
2018-07-30T08:15:51.005Z,55.71
2018-07-30T08:18:55.257Z,56.71
2018-07-30T08:21:59.542Z,55.71
2018-07-30T08:25:03.633Z,54.94
2018-07-30T08:28:07.890Z,54.33
2018-07-30T08:31:12.185Z,54.40
2018-07-30T08:34:16.502Z,53.87
2018-07-30T08:37:20.797Z,53.89
2018-07-30T08:40:25.093Z,53.63
2018-07-30T08:43:29.402Z,54.21
2018-07-30T08:46:33.780Z,55.28
2018-07-30T08:49:38.052Z,56.65
2018-07-30T08:52:42.386Z,56.04
2018-07-30T08:55:46.672Z,56.43
2018-07-30T08:58:51.364Z,55.29
2018-07-30T09:01:55.368Z,56.19
2018-07-30T09:04:59.625Z,55.63
2018-07-30T09:08:03.924Z,55.44
2018-07-30T09:11:08.193Z,55.11
2018-07-30T09:14:12.464Z,55.83
2018-07-30T09:17:16.789Z,53.33
2018-07-30T09:20:20.816Z,53.09
2018-07-30T09:23:25.115Z,54.71
2018-07-30T09:26:29.357Z,53.78
2018-07-30T09:29:33.596Z,54.36
2018-07-30T09:32:37.853Z,51.83
2018-07-30T09:35:42.133Z,50.43
2018-07-30T09:38:46.484Z,50.84
2018-07-30T09:41:50.709Z,50.82
2018-07-30T09:44:55.028Z,51.37
2018-07-30T09:47:59.442Z,52.22
2018-07-30T09:51:03.729Z,52.13
2018-07-30T09:54:08.079Z,52.56
2018-07-30T09:57:12.329Z,53.21
2018-07-30T10:00:20.699Z,53.40
2018-07-30T10:03:24.977Z,53.73
2018-07-30T10:06:29.310Z,53.37
2018-07-30T10:09:33.589Z,54.70
2018-07-30T10:12:37.858Z,53.28
2018-07-30T10:15:42.124Z,55.25
2018-07-30T10:18:46.426Z,55.01
2018-07-30T10:21:50.705Z,56.70
2018-07-30T10:24:54.988Z,61.76
2018-07-30T10:27:59.317Z,65.25
2018-07-30T10:31:03.617Z,67.31
2018-07-30T10:34:07.878Z,70.06
2018-07-30T10:37:12.161Z,68.50
2018-07-30T10:40:16.489Z,68.67
2018-07-30T10:43:20.701Z,66.78
2018-07-30T10:46:25.019Z,66.16
2018-07-30T10:49:29.285Z,64.01
2018-07-30T10:52:33.608Z,61.69
2018-07-30T10:55:37.877Z,60.40
2018-07-30T10:58:42.221Z,62.08
2018-07-30T11:01:46.264Z,60.78
2018-07-30T11:04:50.540Z,58.47
2018-07-30T11:07:54.835Z,58.19
2018-07-30T11:10:59.081Z,58.00
2018-07-30T11:14:03.350Z,58.05
2018-07-30T11:17:07.644Z,55.33
2018-07-30T11:20:11.941Z,56.00
2018-07-30T11:23:16.236Z,56.08
2018-07-30T11:26:20.486Z,56.84
2018-07-30T11:29:24.764Z,56.20
2018-07-30T11:32:29.086Z,56.91
2018-07-30T11:35:33.397Z,56.65
2018-07-30T11:38:37.677Z,53.95
2018-07-30T11:41:42.226Z,56.46
2018-07-30T11:44:46.476Z,53.28
2018-07-30T11:47:50.753Z,51.94
2018-07-30T11:50:55.014Z,52.78
2018-07-30T11:53:59.324Z,53.19
2018-07-30T11:57:03.554Z,53.80
2018-07-30T12:00:08.060Z,54.13
2018-07-30T12:03:12.335Z,51.64
2018-07-30T12:06:16.608Z,51.19
2018-07-30T12:09:20.896Z,52.68
2018-07-30T12:12:25.191Z,52.30
2018-07-30T12:15:29.469Z,51.89
2018-07-30T12:18:33.730Z,50.51
2018-07-30T12:21:38.072Z,49.64
2018-07-30T12:24:42.359Z,51.44
2018-07-30T12:27:46.621Z,52.67
2018-07-30T12:30:50.917Z,56.27
2018-07-30T12:33:55.547Z,53.27
2018-07-30T12:36:59.785Z,55.26
2018-07-30T12:40:04.091Z,56.96
2018-07-30T12:43:08.356Z,56.84
2018-07-30T12:46:12.670Z,58.60
2018-07-30T12:49:16.973Z,56.60
2018-07-30T12:52:21.257Z,57.24
2018-07-30T12:55:25.596Z,54.20
2018-07-30T12:58:29.865Z,53.99
2018-07-30T13:01:34.174Z,54.81
2018-07-30T13:04:38.440Z,53.34
2018-07-30T13:07:42.755Z,52.12
2018-07-30T13:10:47.037Z,53.04
2018-07-30T13:13:51.412Z,53.14
2018-07-30T13:16:55.621Z,44.46
2018-07-30T13:20:00.025Z,42.88
2018-07-30T13:23:04.078Z,43.17
2018-07-30T13:26:08.324Z,42.76
2018-07-30T13:29:13.340Z,42.21
2018-07-30T13:32:17.576Z,44.26
2018-07-30T13:35:21.842Z,44.30
2018-07-30T13:38:26.091Z,45.63
2018-07-30T13:41:30.326Z,43.53
2018-07-30T13:44:34.634Z,45.78
2018-07-30T13:47:38.937Z,44.77
2018-07-30T13:50:43.152Z,46.16
2018-07-30T13:53:47.353Z,44.84
2018-07-30T13:56:51.590Z,44.29
2018-07-30T13:59:55.850Z,45.64
2018-07-30T14:03:00.063Z,45.60
2018-07-30T14:06:04.421Z,46.07
2018-07-30T14:09:11.130Z,45.46
2018-07-30T14:12:15.381Z,47.62
2018-07-30T14:15:19.657Z,47.36
2018-07-30T14:18:23.941Z,48.79
2018-07-30T14:21:28.164Z,47.15
2018-07-30T14:24:32.409Z,48.91
2018-07-30T14:27:36.636Z,47.86
2018-07-30T14:30:40.909Z,49.47
2018-07-30T14:33:45.151Z,48.25
2018-07-30T14:36:49.500Z,51.37
2018-07-30T14:39:54.034Z,52.34
2018-07-30T14:42:58.292Z,50.37
2018-07-30T14:46:02.556Z,49.83
2018-07-30T14:49:06.809Z,49.76
2018-07-30T14:52:11.065Z,49.53
2018-07-30T14:55:15.339Z,50.66
2018-07-30T14:58:19.597Z,49.83
2018-07-30T15:01:23.909Z,50.66
2018-07-30T15:04:28.226Z,49.24
2018-07-30T15:07:32.529Z,49.80
2018-07-30T15:10:36.868Z,50.83
2018-07-30T15:13:41.138Z,49.61
2018-07-30T15:16:45.435Z,52.01
2018-07-30T15:19:49.714Z,52.21
2018-07-30T15:22:54.017Z,52.54
2018-07-30T15:25:58.273Z,53.17
2018-07-30T15:29:02.586Z,49.82
2018-07-30T15:32:07.032Z,52.70
2018-07-30T15:35:11.265Z,53.31
2018-07-30T15:38:15.457Z,52.12
2018-07-30T15:41:19.708Z,51.30
2018-07-30T15:44:23.900Z,48.88
2018-07-30T15:47:28.141Z,50.99
2018-07-30T15:50:32.336Z,52.69
2018-07-30T15:53:36.597Z,52.32
2018-07-30T15:56:40.969Z,49.17
2018-07-30T15:59:45.198Z,48.32
2018-07-30T16:02:49.452Z,46.40
2018-07-30T16:05:53.769Z,44.63
2018-07-30T16:08:57.985Z,46.44
2018-07-30T16:12:02.187Z,43.46
2018-07-30T16:15:08.139Z,44.04
2018-07-30T16:18:12.370Z,43.33
2018-07-30T16:21:16.584Z,45.29
2018-07-30T16:24:20.772Z,45.29
2018-07-30T16:27:25.073Z,45.92
2018-07-30T16:30:29.302Z,46.23
2018-07-30T16:33:33.557Z,47.76
2018-07-30T16:36:37.796Z,49.07
2018-07-30T16:39:42.012Z,47.74
2018-07-30T16:42:46.298Z,46.78
2018-07-30T16:45:50.544Z,46.47
2018-07-30T16:48:54.770Z,48.44
2018-07-30T16:51:58.993Z,47.93
2018-07-30T16:55:03.245Z,47.10
2018-07-30T16:58:07.481Z,47.86
2018-07-30T17:01:11.736Z,48.35
2018-07-30T17:04:15.978Z,48.55
2018-07-30T17:07:20.229Z,48.14
2018-07-30T17:10:24.460Z,48.94
2018-07-30T17:13:28.766Z,48.69
2018-07-30T17:16:33.061Z,49.32
2018-07-30T17:19:37.355Z,49.77
2018-07-30T17:22:42.363Z,50.79
2018-07-30T17:25:46.616Z,51.00
2018-07-30T17:28:50.863Z,50.78
2018-07-30T17:31:55.092Z,51.51
2018-07-30T17:34:59.277Z,51.66
2018-07-30T17:38:03.517Z,51.47
2018-07-30T17:41:07.511Z,51.20
2018-07-30T17:44:11.733Z,51.07
2018-07-30T17:47:15.924Z,51.89
2018-07-30T17:50:20.131Z,52.39
2018-07-30T17:53:24.341Z,52.45
2018-07-30T17:56:28.573Z,52.93
2018-07-30T17:59:32.752Z,52.69
2018-07-30T18:02:36.948Z,52.51
2018-07-30T18:05:41.165Z,53.15
2018-07-30T18:08:45.372Z,52.19
2018-07-30T18:11:49.606Z,52.54
2018-07-30T18:14:53.819Z,51.94
2018-07-30T18:17:58.018Z,53.08
2018-07-30T18:21:02.237Z,52.91
2018-07-30T18:24:06.465Z,52.50
2018-07-30T18:27:10.642Z,53.10
2018-07-30T18:30:14.838Z,53.22
2018-07-30T18:33:19.030Z,54.21
2018-07-30T18:36:23.242Z,54.26
2018-07-30T18:39:27.467Z,55.43
2018-07-30T18:42:31.673Z,55.14
2018-07-30T18:45:35.881Z,54.73
2018-07-30T18:48:40.101Z,55.91
2018-07-30T18:51:44.293Z,56.94
2018-07-30T18:54:48.561Z,56.41
2018-07-30T18:57:52.760Z,57.50
2018-07-30T19:00:56.968Z,57.57
2018-07-30T19:04:01.148Z,57.49
2018-07-30T19:07:05.372Z,58.29
2018-07-30T19:10:09.565Z,57.71
2018-07-30T19:13:13.804Z,58.32
2018-07-30T19:16:18.010Z,59.31
2018-07-30T19:19:22.956Z,59.61
2018-07-30T19:22:27.158Z,59.76
2018-07-30T19:25:31.389Z,60.49
2018-07-30T19:28:35.592Z,60.87
2018-07-30T19:31:39.794Z,60.63
2018-07-30T19:34:43.800Z,60.78
2018-07-30T19:37:48.005Z,61.45
2018-07-30T19:40:52.217Z,62.05
2018-07-30T19:43:56.479Z,61.56
2018-07-30T19:47:00.678Z,62.69
2018-07-30T19:50:05.032Z,62.22
2018-07-30T19:53:09.245Z,63.29
2018-07-30T19:56:13.457Z,62.48
2018-07-30T19:59:17.681Z,63.54
2018-07-30T20:02:21.880Z,63.34
2018-07-30T20:05:26.076Z,62.88
2018-07-30T20:08:30.304Z,63.66
2018-07-30T20:11:34.529Z,63.58
2018-07-30T20:14:38.746Z,62.51
2018-07-30T20:17:43.000Z,62.86
2018-07-30T20:20:47.180Z,62.45
2018-07-30T20:23:51.380Z,62.48
2018-07-30T20:26:55.579Z,63.04
2018-07-30T20:29:59.800Z,62.78
2018-07-30T20:33:04.018Z,62.15
2018-07-30T20:36:08.213Z,62.04
2018-07-30T20:39:12.428Z,62.80
2018-07-30T20:42:16.634Z,62.81
2018-07-30T20:45:20.865Z,62.36
2018-07-30T20:48:25.065Z,62.43
2018-07-30T20:51:29.272Z,62.97
2018-07-30T20:54:33.501Z,62.47
2018-07-30T20:57:37.693Z,62.48
2018-07-30T21:00:41.913Z,61.83
2018-07-30T21:03:46.106Z,61.03
2018-07-30T21:06:50.106Z,61.90
2018-07-30T21:09:54.313Z,62.20
2018-07-30T21:12:58.537Z,62.06
2018-07-30T21:16:02.768Z,63.18
2018-07-30T21:19:06.992Z,63.06
2018-07-30T21:22:11.185Z,62.30
2018-07-30T21:25:15.416Z,62.77
2018-07-30T21:28:19.619Z,63.53
2018-07-30T21:31:23.812Z,62.40
2018-07-30T21:34:28.077Z,62.73
2018-07-30T21:37:32.294Z,63.00
2018-07-30T21:40:36.493Z,62.79
2018-07-30T21:43:40.694Z,63.35
2018-07-30T21:46:44.890Z,63.89
2018-07-30T21:49:49.093Z,63.75
2018-07-30T21:52:53.296Z,63.94
2018-07-30T21:55:57.525Z,63.72
2018-07-30T21:59:01.730Z,64.60
2018-07-30T22:02:06.289Z,64.85
2018-07-30T22:05:14.600Z,64.18
2018-07-30T22:08:18.838Z,64.12
2018-07-30T22:11:23.045Z,64.68
2018-07-30T22:14:27.245Z,65.21
2018-07-30T22:17:31.452Z,65.41
2018-07-30T22:20:35.675Z,65.56
2018-07-30T22:23:39.896Z,65.97
2018-07-30T22:26:44.109Z,66.05
2018-07-30T22:29:48.336Z,67.25
2018-07-30T22:32:52.512Z,67.34
2018-07-30T22:35:56.745Z,68.24
2018-07-30T22:39:00.961Z,67.63
2018-07-30T22:42:04.949Z,68.55
2018-07-30T22:45:09.169Z,69.21
2018-07-30T22:48:13.368Z,69.57
2018-07-30T22:51:17.597Z,68.95
2018-07-30T22:54:21.814Z,70.04
2018-07-30T22:57:26.013Z,71.33
2018-07-30T23:00:30.253Z,71.37
2018-07-30T23:03:34.476Z,72.67
2018-07-30T23:06:38.724Z,72.91
2018-07-30T23:09:42.951Z,73.75
2018-07-30T23:12:47.160Z,74.52
2018-07-30T23:15:51.392Z,74.92
2018-07-30T23:18:55.764Z,74.80
2018-07-30T23:21:59.960Z,76.14
2018-07-30T23:25:04.200Z,76.56
2018-07-30T23:28:08.428Z,75.88
2018-07-30T23:31:12.636Z,76.24
2018-07-30T23:34:16.841Z,76.74
2018-07-30T23:37:21.157Z,77.31
2018-07-30T23:40:25.253Z,76.78
2018-07-30T23:43:30.291Z,77.18
2018-07-30T23:46:34.509Z,77.57
2018-07-30T23:49:38.761Z,77.62
2018-07-30T23:52:42.941Z,78.16
2018-07-30T23:55:47.149Z,78.53
2018-07-30T23:58:51.384Z,78.80
